Aérodrome :
LOGIN :

S'inscrire | Disclaimer

   EN    FR    IT 

 










Légende :    VFR   VFR Marginal   IFR   IFR Intensif   IFR Très Intensif
Visi : 
Plafond : 
>= 8 km
>= 3000ft
5 à 8 km
1000 à 3000 ft
1500m à 5 km
500 à 1000 ft
800 à 1500m
200 à 500 ft
< 800m
< 200 ft
Symboles :   Orages  Brouillard  Fortes neiges  Fortes précipitations  Vent > 20 kt
SIGMETs :   Divers  Orages  Givrage  Turbulence  Onde Orograph.  Cendres Volcan.







- Altitude de l'aérodrome : 74 ft
- Code IATA : EIN


EHEH - Eindhoven

DERNIER METAR :
  • 180225Z AUTO 26003KT 9999 NCD M01/M01 Q1016 BLU

METARs EXPIRÉS :
  • 180155Z AUTO 27003KT 230V310 9999 NCD M01/M01 Q1016 BLU
  • 180125Z AUTO 26004KT 9999 NCD M01/M01 Q1015 BLU
  • 180055Z AUTO 24005KT 9999 NCD M02/M02 Q1015 BLU
  • 180025Z AUTO 23005KT 9000 BR NCD M02/M02 Q1015 BLU
  • 172355Z AUTO 26004KT 220V290 9999 NCD M00/M01 Q1014 BLU

TAF TAF EHEH
Valide du 18 à 00h jusqu'au 19 à 06h UTC


172330Z 1800/1906 26008KT 9999 FEW040
PROB30
TEMPO 1800/1801 2500 SHRAGS SHRASN SCT005 SCT014CB BKN020
BECMG 1801/1804 23005KT 4000 BR
PROB30 1804/1809 1500
BECMG 1809/1812 CAVOK
Pas de NOTAMs connus pour ce terrain.



MET'MAP, la Météo Aéronautique d'un coup d'oeil ! - Copyright ORBIFLY Décembre 2007 - Disclaimer

ORBIFLY MET'MAP TEAM :

Programmation & Développement : Alexandra Zaïnal
Conception & Développement : Baudouin d'Aumeries
Co-Programmation & Développement : Marc-Olivier Méhu
Soutien technique & logistique : Manuel Goepfert

Contact : metmap@orbifly.com




SOURCES & CREDITS :

   NOAA